ENVR

Værøy Heliport

Airport
ICAO code
ENVR
Summary
ICAO Region
EUR
ICAO Territory
Location

Værøy, Nordland,

Elevation
12 ft
Coordinates
67° 39' 16" N , 12° 43' 38" E
KCC
Metar
Observation
ENVR 270750Z 21027G38KT 5000 -RADZ BKN005 OVC008 05/03 Q1008
Station
Værøy Heliport
Date/Time
2023-01-27 07:50:00
Wind direction
210°
Wind speed
27 kts
Lowest cloud amount
broken clouds
Temperature
5°C
Dew point
3°C
Humidity
86%
QNH
1008 hPa
Weather condition
n/a

Description

Værøy Heliport (Norwegian: Værøy lufthavn) is a heliport on the island of Værøy in Nordland county in Norway. The airport had 8,372 passengers in 2005.

Scheduled helicopter services are provided by Lufttransport on public service obligation contracts with the Norwegian Government to Bodø.

Climatology

Subpolar Oceanic climate (Köppen climate classification Cfc) - uniform precipitation distribution, temperatures are moderated by the proximity of the ocean and warm currents - cool summers and comparatively mild winters.

Runways

Designator Length Width Surface Rops
3/21 59 34 ASPHALT No/No

Airport map

Aerial View

SKYbrary Partners:

Safety knowledge contributed by: